Time;durP1;ratioP1;P1;durP2;ratioP2;P2;SDS_P1;SDS_P2;PMS_P1;PMS_P2;Temp;Humidity;BMP_temperature;BMP_pressure;BME280_temperature;BME280_humidity;BME280_pressure;Samples;Min_cycle;Max_cycle;Signal;HPM_P1;HPM_P2
2023/10/09 00:01:12;;;;;;;;;;;;;;;;;;5073890;28;20379;-76
2023/10/09 00:03:40;;;;;;;;;;;;;;;;;;5074687;28;19978;-76
2023/10/09 00:06:10;;;;;;;;;;;;;;;;;;5074883;28;19931;-76
2023/10/09 00:08:38;;;;;;;;;;;;;;;;;;5071234;28;19932;-76
2023/10/09 00:11:16;;;;;;;;;;;;;;;;;;5074043;28;19928;-76
2023/10/09 00:13:48;;;;;;;;;;;;;;;;;;5073619;28;19931;-76
2023/10/09 00:16:23;;;;;;;;;;;;;;;;;;5073495;28;20003;-77
2023/10/09 00:18:50;;;;;;;;;;;;;;;;;;5073014;28;19925;-78
2023/10/09 00:21:20;;;;;;;;;;;;;;;;;;5073538;28;19954;-78
2023/10/09 00:23:52;;;;;;;;;;;;;;;;;;5072087;28;19988;-78
2023/10/09 00:26:21;;;;;;;;;;;;;;;;;;5073954;28;19928;-78
2023/10/09 00:28:50;;;;;;;;;;;;;;;;;;5071748;28;20292;-77
2023/10/09 00:31:26;;;;;;;;;;;;;;;;;;5073329;28;19924;-79
2023/10/09 00:33:54;;;;;;;;;;;;;;;;;;5073826;28;19924;-77
2023/10/09 00:36:27;;;;;;;;;;;;;;;;;;5073724;28;19925;-78
2023/10/09 00:38:54;;;;;;;;;;;;;;;;;;5071278;28;19956;-77
2023/10/09 00:41:24;;;;;;;;;;;;;;;;;;5073720;28;20284;-77
2023/10/09 00:43:52;;;;;;;;;;;;;;;;;;5074106;28;19929;-77
2023/10/09 00:46:24;;;;;;;;;;;;;;;;;;5073726;28;19925;-77
2023/10/09 00:48:51;;;;;;;;;;;;;;;;;;5072708;28;20354;-78
2023/10/09 00:51:18;;;;;;;;;;;;;;;;;;5073747;28;20045;-78
2023/10/09 00:53:48;;;;;;;;;;;;;;;;;;5071552;28;19925;-77
2023/10/09 00:56:20;;;;;;;;;;;;;;;;;;5065724;28;19925;-77
2023/10/09 00:58:49;;;;;;;;;;;;;;;;;;5063817;28;19925;-77
2023/10/09 01:01:16;;;;;;;;;;;;;;;;;;5072732;28;20284;-77
2023/10/09 01:03:44;;;;;;;;;;;;;;;;;;5072875;28;19925;-77
2023/10/09 01:06:21;;;;;;;;;;;;;;;;;;5073544;28;19924;-77
2023/10/09 01:08:56;;;;;;;;;;;;;;;;;;5071156;28;19970;-77
2023/10/09 01:11:29;;;;;;;;;;;;;;;;;;5072875;28;20461;-78
2023/10/09 01:14:11;;;;;;;;;;;;;;;;;;5072979;28;20136;-78
2023/10/09 01:16:38;;;;;;;;;;;;;;;;;;5073051;28;20310;-78
2023/10/09 01:19:13;;;;;;;;;;;;;;;;;;5072020;28;20299;-78
2023/10/09 01:21:40;;;;;;;;;;;;;;;;;;5072309;28;20299;-78
2023/10/09 01:24:08;;;;;;;;;;;;;;;;;;5070029;28;19971;-79
2023/10/09 01:26:39;;;;;;;;;;;;;;;;;;5072061;28;19978;-78
2023/10/09 01:29:10;;;;;;;;;;;;;;;;;;5072852;28;19924;-77
2023/10/09 01:31:43;;;;;;;;;;;;;;;;;;5071144;28;20700;-79
2023/10/09 01:34:12;;;;;;;;;;;;;;;;;;5072022;28;19933;-80
2023/10/09 01:36:39;;;;;;;;;;;;;;;;;;5070945;28;19931;-80
2023/10/09 01:39:21;;;;;;;;;;;;;;;;;;5070363;28;19924;-80
2023/10/09 01:41:49;;;;;;;;;;;;;;;;;;5072679;28;20396;-80
2023/10/09 01:44:16;;;;;;;;;;;;;;;;;;5072809;28;19924;-80
2023/10/09 01:46:45;;;;;;;;;;;;;;;;;;5072147;28;20384;-80
2023/10/09 01:49:17;;;;;;;;;;;;;;;;;;5071826;28;19931;-80
2023/10/09 01:51:44;;;;;;;;;;;;;;;;;;5072671;28;20340;-80
2023/10/09 01:54:27;;;;;;;;;;;;;;;;;;5070956;28;19924;-79
2023/10/09 01:56:56;;;;;;;;;;;;;;;;;;5071282;28;19962;-79
2023/10/09 01:59:23;;;;;;;;;;;;;;;;;;5071825;28;19978;-80
2023/10/09 02:01:54;;;;;;;;;;;;;;;;;;5071309;28;19928;-80
2023/10/09 02:04:22;;;;;;;;;;;;;;;;;;5072651;28;20007;-78
2023/10/09 02:06:52;;;;;;;;;;;;;;;;;;5072042;28;19925;-78
2023/10/09 02:09:25;;;;;;;;;;;;;;;;;;5069700;28;20361;-78
2023/10/09 02:11:53;;;;;;;;;;;;;;;;;;5056295;28;19925;-79
2023/10/09 02:14:24;;;;;;;;;;;;;;;;;;5063553;28;19970;-78
2023/10/09 02:17:05;;;;;;;;;;;;;;;;;;5073951;28;19924;-78
2023/10/09 02:19:34;;;;;;;;;;;;;;;;;;5078262;28;19932;-78
2023/10/09 02:22:03;;;;;;;;;;;;;;;;;;5073201;28;19977;-79
2023/10/09 02:27:12;;;;;;;;;;;;;;;;;;5069802;28;19925;-77
2023/10/09 02:29:41;;;;;;;;;;;;;;;;;;5073216;28;19973;-78
2023/10/09 02:32:24;;;;;;;;;;;;;;;;;;5072933;28;19928;-78
2023/10/09 02:34:53;;;;;;;;;;;;;;;;;;5073229;28;19955;-79
2023/10/09 02:37:23;;;;;;;;;;;;;;;;;;5070811;28;19932;-78
2023/10/09 02:39:52;;;;;;;;;;;;;;;;;;5067361;28;20023;-77
2023/10/09 02:42:25;;;;;;;;;;;;;;;;;;5070514;28;19956;-77
2023/10/09 02:44:52;;;;;;;;;;;;;;;;;;5068129;28;19994;-78
2023/10/09 02:47:24;;;;;;;;;;;;;;;;;;5071385;28;19924;-77
2023/10/09 02:49:51;;;;;;;;;;;;;;;;;;5052271;28;20020;-78
2023/10/09 02:52:24;;;;;;;;;;;;;;;;;;5065158;28;19954;-77
2023/10/09 02:54:59;;;;;;;;;;;;;;;;;;5069796;28;20024;-77
2023/10/09 02:57:28;;;;;;;;;;;;;;;;;;5072172;28;19929;-77
2023/10/09 02:59:55;;;;;;;;;;;;;;;;;;5071560;28;19932;-76
2023/10/09 03:02:24;;;;;;;;;;;;;;;;;;5071085;28;19978;-77
2023/10/09 03:04:54;;;;;;;;;;;;;;;;;;5071514;28;19970;-77
2023/10/09 03:07:23;;;;;;;;;;;;;;;;;;5070595;28;20021;-77
2023/10/09 03:09:50;;;;;;;;;;;;;;;;;;5071847;28;19924;-77
2023/10/09 03:12:18;;;;;;;;;;;;;;;;;;5071823;28;19935;-77
2023/10/09 03:14:45;;;;;;;;;;;;;;;;;;5071878;28;19924;-78
2023/10/09 03:17:12;;;;;;;;;;;;;;;;;;5072526;28;19954;-78
2023/10/09 03:19:39;;;;;;;;;;;;;;;;;;5074419;28;19986;-78
2023/10/09 03:22:09;;;;;;;;;;;;;;;;;;5073589;28;19925;-78
2023/10/09 03:24:36;;;;;;;;;;;;;;;;;;5075265;28;19925;-77
2023/10/09 03:27:03;;;;;;;;;;;;;;;;;;5074386;28;19925;-77
2023/10/09 03:29:30;;;;;;;;;;;;;;;;;;5075341;28;19970;-77
2023/10/09 03:31:57;;;;;;;;;;;;;;;;;;5073264;28;19964;-77
2023/10/09 03:34:24;;;;;;;;;;;;;;;;;;5074875;28;20299;-76
2023/10/09 03:37:03;;;;;;;;;;;;;;;;;;5074923;28;20293;-76
2023/10/09 03:39:34;;;;;;;;;;;;;;;;;;5073617;28;19931;-77
2023/10/09 03:42:04;;;;;;;;;;;;;;;;;;5074488;28;19931;-77
2023/10/09 03:44:33;;;;;;;;;;;;;;;;;;5075388;28;19940;-79
2023/10/09 03:47:01;;;;;;;;;;;;;;;;;;5074464;28;19924;-79
2023/10/09 03:49:29;;;;;;;;;;;;;;;;;;5075802;28;19967;-78
2023/10/09 03:51:56;;;;;;;;;;;;;;;;;;5077355;28;20393;-78
2023/10/09 03:54:24;;;;;;;;;;;;;;;;;;5072525;28;19978;-78
2023/10/09 03:56:51;;;;;;;;;;;;;;;;;;5074648;28;19998;-78
2023/10/09 03:59:19;;;;;;;;;;;;;;;;;;5073875;28;19929;-78
2023/10/09 04:01:48;;;;;;;;;;;;;;;;;;5073145;28;19955;-78
2023/10/09 04:04:15;;;;;;;;;;;;;;;;;;5073349;28;19924;-78
2023/10/09 04:06:42;;;;;;;;;;;;;;;;;;5073497;28;19924;-78
2023/10/09 04:09:27;;;;;;;;;;;;;;;;;;5072474;28;19983;-78
2023/10/09 04:12:13;;;;;;;;;;;;;;;;;;5071655;28;19930;-78
2023/10/09 04:14:54;;;;;;;;;;;;;;;;;;5074610;28;19924;-78
2023/10/09 04:17:34;;;;;;;;;;;;;;;;;;5072906;28;19943;-78
2023/10/09 04:22:59;;;;;;;;;;;;;;;;;;5055384;28;20413;-78
2023/10/09 04:25:26;;;;;;;;;;;;;;;;;;5073439;28;19925;-78
2023/10/09 04:27:59;;;;;;;;;;;;;;;;;;5073458;28;19976;-78
2023/10/09 04:30:27;;;;;;;;;;;;;;;;;;5072790;28;19924;-78
2023/10/09 04:32:59;;;;;;;;;;;;;;;;;;5072139;28;19983;-78
2023/10/09 04:35:27;;;;;;;;;;;;;;;;;;5074368;28;20022;-78
2023/10/09 04:38:04;;;;;;;;;;;;;;;;;;5072936;28;20007;-78
2023/10/09 04:43:21;;;;;;;;;;;;;;;;;;5071881;28;19979;-77
2023/10/09 04:48:38;;;;;;;;;;;;;;;;;;5073194;28;20007;-77
2023/10/09 04:51:34;;;;;;;;;;;;;;;;;;5072225;28;20011;-78
2023/10/09 04:54:12;;;;;;;;;;;;;;;;;;5070049;28;19925;-79
2023/10/09 04:56:51;;;;;;;;;;;;;;;;;;5072826;28;20294;-78
2023/10/09 04:59:18;;;;;;;;;;;;;;;;;;5072258;28;19924;-78
2023/10/09 05:01:57;;;;;;;;;;;;;;;;;;5072667;28;19924;-77
2023/10/09 05:04:39;;;;;;;;;;;;;;;;;;5072837;28;19924;-76
2023/10/09 05:07:22;;;;;;;;;;;;;;;;;;5073082;28;19970;-76
2023/10/09 05:10:14;;;;;;;;;;;;;;;;;;5070046;28;19928;-77
2023/10/09 05:12:46;;;;;;;;;;;;;;;;;;5071603;28;19924;-78
2023/10/09 05:15:13;;;;;;;;;;;;;;;;;;5072842;28;20416;-77
2023/10/09 05:17:45;;;;;;;;;;;;;;;;;;5072234;28;19947;-74
2023/10/09 05:23:23;;;;;;;;;;;;;;;;;;5070391;28;20679;-75
2023/10/09 05:25:58;;;;;;;;;;;;;;;;;;5069539;28;20350;-75
2023/10/09 05:28:31;;;;;;;;;;;;;;;;;;5059925;28;20307;-75
2023/10/09 05:31:07;;;;;;;;;;;;;;;;;;5070796;28;20391;-74
2023/10/09 05:33:36;;;;;;;;;;;;;;;;;;5071100;28;19924;-74
2023/10/09 05:36:14;;;;;;;;;;;;;;;;;;5071917;28;19931;-74
2023/10/09 05:38:46;;;;;;;;;;;;;;;;;;5072083;28;19925;-74
2023/10/09 05:46:48;;;;;;;;;;;;;;;;;;5063499;28;19923;-75
2023/10/09 05:49:19;;;;;;;;;;;;;;;;;;5066847;28;19939;-74
2023/10/09 05:51:53;;;;;;;;;;;;;;;;;;5068737;28;19928;-74
2023/10/09 06:08:07;;;;;;;;;;;;;;;;;;5066704;28;19924;-76
2023/10/09 06:10:40;;;;;;;;;;;;;;;;;;5068116;28;19924;-75
2023/10/09 06:13:07;;;;;;;;;;;;;;;;;;5070383;28;19924;-74
2023/10/09 06:15:51;;;;;;;;;;;;;;;;;;5069006;28;19924;-75
2023/10/09 06:18:32;;;;;;;;;;;;;;;;;;5069172;28;19933;-76
2023/10/09 06:21:47;;;;;;;;;;;;;;;;;;5058916;28;19925;-74
2023/10/09 06:24:15;;;;;;;;;;;;;;;;;;5062132;28;19976;-75
2023/10/09 06:26:52;;;;;;;;;;;;;;;;;;5063483;28;19924;-75
2023/10/09 06:32:15;;;;;;;;;;;;;;;;;;5069295;28;19975;-75
2023/10/09 06:34:44;;;;;;;;;;;;;;;;;;5069263;28;19983;-76
2023/10/09 06:37:34;;;;;;;;;;;;;;;;;;5065529;28;20272;-75
2023/10/09 06:42:51;;;;;;;;;;;;;;;;;;5069807;28;19966;-75
2023/10/09 06:45:18;;;;;;;;;;;;;;;;;;5070504;28;19924;-75
2023/10/09 06:47:53;;;;;;;;;;;;;;;;;;5068098;28;19947;-76
2023/10/09 06:50:42;;;;;;;;;;;;;;;;;;5064777;28;20018;-75
2023/10/09 06:53:25;;;;;;;;;;;;;;;;;;5070707;28;19982;-76
2023/10/09 06:55:52;;;;;;;;;;;;;;;;;;5066100;28;20306;-75
2023/10/09 06:58:23;;;;;;;;;;;;;;;;;;5071742;28;19955;-75
2023/10/09 07:01:00;;;;;;;;;;;;;;;;;;5069567;28;19928;-75
2023/10/09 07:03:29;;;;;;;;;;;;;;;;;;5073640;28;20323;-75
2023/10/09 07:06:05;;;;;;;;;;;;;;;;;;5072799;28;19986;-75
2023/10/09 07:08:37;;;;;;;;;;;;;;;;;;5072067;28;20018;-76
2023/10/09 07:13:52;;;;;;;;;;;;;;;;;;5053709;28;19925;-77
2023/10/09 07:16:28;;;;;;;;;;;;;;;;;;5069950;28;19928;-73
2023/10/09 07:18:55;;;;;;;;;;;;;;;;;;5064225;28;19925;-74
2023/10/09 07:21:28;;;;;;;;;;;;;;;;;;5074429;28;20011;-74
2023/10/09 07:23:58;;;;;;;;;;;;;;;;;;5074288;28;19925;-74
2023/10/09 07:26:36;;;;;;;;;;;;;;;;;;5071641;28;19928;-75
2023/10/09 07:29:16;;;;;;;;;;;;;;;;;;5072233;28;19931;-75
2023/10/09 07:31:45;;;;;;;;;;;;;;;;;;5072915;28;19975;-75
2023/10/09 07:36:57;;;;;;;;;;;;;;;;;;5071063;28;19934;-75
2023/10/09 07:39:34;;;;;;;;;;;;;;;;;;5075383;28;19928;-74
2023/10/09 07:42:15;;;;;;;;;;;;;;;;;;5073405;28;20019;-75
2023/10/09 07:44:46;;;;;;;;;;;;;;;;;;5072801;28;20359;-75
2023/10/09 07:47:22;;;;;;;;;;;;;;;;;;5074401;28;19924;-75
2023/10/09 07:49:52;;;;;;;;;;;;;;;;;;5071907;28;20691;-75
2023/10/09 07:52:21;;;;;;;;;;;;;;;;;;5071373;28;19929;-75
2023/10/09 07:54:52;;;;;;;;;;;;;;;;;;5072643;28;19924;-75
2023/10/09 07:57:25;;;;;;;;;;;;;;;;;;5070702;28;19924;-75
2023/10/09 08:00:00;;;;;;;;;;;;;;;;;;5072046;28;20062;-74
2023/10/09 08:02:32;;;;;;;;;;;;;;;;;;5070579;28;19924;-74
2023/10/09 08:05:03;;;;;;;;;;;;;;;;;;5070779;28;20042;-74
2023/10/09 08:07:34;;;;;;;;;;;;;;;;;;5072053;28;19964;-75
2023/10/09 08:15:26;;;;;;;;;;;;;;;;;;5068494;28;20395;-74
2023/10/09 08:17:53;;;;;;;;;;;;;;;;;;5066596;28;19966;-74
2023/10/09 08:20:24;;;;;;;;;;;;;;;;;;5071748;28;19925;-74
2023/10/09 08:22:52;;;;;;;;;;;;;;;;;;5069779;28;19967;-76
2023/10/09 08:25:29;;;;;;;;;;;;;;;;;;5070742;28;20378;-74
2023/10/09 08:27:56;;;;;;;;;;;;;;;;;;5067921;28;19924;-74
2023/10/09 08:30:40;;;;;;;;;;;;;;;;;;5069733;28;19925;-74
2023/10/09 08:35:48;;;;;;;;;;;;;;;;;;5071261;28;19932;-75
2023/10/09 08:38:21;;;;;;;;;;;;;;;;;;5070611;28;20335;-74
2023/10/09 08:40:50;;;;;;;;;;;;;;;;;;5069525;28;20419;-74
2023/10/09 08:43:17;;;;;;;;;;;;;;;;;;5070385;28;19928;-74
2023/10/09 08:45:44;;;;;;;;;;;;;;;;;;5068618;28;19971;-74
2023/10/09 08:48:15;;;;;;;;;;;;;;;;;;5068859;28;19994;-74
2023/10/09 08:50:43;;;;;;;;;;;;;;;;;;5071899;28;19932;-74
2023/10/09 08:53:10;;;;;;;;;;;;;;;;;;5070422;28;19967;-74
2023/10/09 08:55:37;;;;;;;;;;;;;;;;;;5071647;28;19939;-74
2023/10/09 08:58:05;;;;;;;;;;;;;;;;;;5068992;28;19925;-74
2023/10/09 09:00:33;;;;;;;;;;;;;;;;;;5070162;28;19982;-73
2023/10/09 09:03:01;;;;;;;;;;;;;;;;;;5070519;28;19968;-74
2023/10/09 09:05:29;;;;;;;;;;;;;;;;;;5070606;28;19929;-74
2023/10/09 09:07:59;;;;;;;;;;;;;;;;;;5070043;28;19928;-75
2023/10/09 09:10:31;;;;;;;;;;;;;;;;;;5071754;28;20257;-75
2023/10/09 09:13:00;;;;;;;;;;;;;;;;;;5071155;28;20064;-75
2023/10/09 09:15:27;;;;;;;;;;;;;;;;;;5067757;28;19925;-75
2023/10/09 09:17:54;;;;;;;;;;;;;;;;;;5068436;28;19978;-75
2023/10/09 09:20:23;;;;;;;;;;;;;;;;;;5070267;28;20436;-75
2023/10/09 09:22:50;;;;;;;;;;;;;;;;;;5065996;28;19932;-75
2023/10/09 09:25:17;;;;;;;;;;;;;;;;;;5071424;28;19978;-75
2023/10/09 09:27:49;;;;;;;;;;;;;;;;;;5068921;28;20364;-75
2023/10/09 09:30:23;;;;;;;;;;;;;;;;;;5069880;28;19932;-75
2023/10/09 09:33:15;;;;;;;;;;;;;;;;;;5058517;28;19924;-75
2023/10/09 09:35:39;;;;;;;;;;;;;;;;;;5070589;28;19924;-75
2023/10/09 09:38:06;;;;;;;;;;;;;;;;;;5071307;28;19986;-75
2023/10/09 09:40:41;;;;;;;;;;;;;;;;;;5070237;28;19928;-75
2023/10/09 09:43:11;;;;;;;;;;;;;;;;;;5068944;28;19929;-75
2023/10/09 09:45:38;;;;;;;;;;;;;;;;;;5071218;28;19932;-75
2023/10/09 09:48:06;;;;;;;;;;;;;;;;;;5070206;28;19924;-75
2023/10/09 09:50:33;;;;;;;;;;;;;;;;;;5071212;28;20019;-75
2023/10/09 09:53:00;;;;;;;;;;;;;;;;;;5069933;28;20334;-75
2023/10/09 09:55:30;;;;;;;;;;;;;;;;;;5063064;28;19951;-75
2023/10/09 09:57:58;;;;;;;;;;;;;;;;;;5068329;28;20430;-74
2023/10/09 10:00:29;;;;;;;;;;;;;;;;;;5068888;28;19932;-76
2023/10/09 10:02:57;;;;;;;;;;;;;;;;;;5069215;28;19925;-75
2023/10/09 10:05:27;;;;;;;;;;;;;;;;;;5070597;28;19924;-75
2023/10/09 10:07:55;;;;;;;;;;;;;;;;;;5052602;28;19924;-76
2023/10/09 10:10:22;;;;;;;;;;;;;;;;;;5069279;28;19925;-77
2023/10/09 10:12:59;;;;;;;;;;;;;;;;;;5068799;28;19928;-76
2023/10/09 10:15:26;;;;;;;;;;;;;;;;;;5069317;28;19928;-76
2023/10/09 10:17:53;;;;;;;;;;;;;;;;;;5067731;28;19968;-76
2023/10/09 10:20:31;;;;;;;;;;;;;;;;;;5054934;28;19924;-74
2023/10/09 10:22:58;;;;;;;;;;;;;;;;;;5070259;28;20034;-76
2023/10/09 10:25:32;;;;;;;;;;;;;;;;;;5069639;28;20031;-76
2023/10/09 10:28:00;;;;;;;;;;;;;;;;;;5072078;28;19931;-76
2023/10/09 10:30:30;;;;;;;;;;;;;;;;;;5071213;28;19937;-74
2023/10/09 10:32:57;;;;;;;;;;;;;;;;;;5073551;28;19925;-74
2023/10/09 10:35:32;;;;;;;;;;;;;;;;;;5072936;28;20435;-74
2023/10/09 10:38:11;;;;;;;;;;;;;;;;;;5075271;28;19932;-75
2023/10/09 10:40:46;;;;;;;;;;;;;;;;;;5071412;28;19943;-74
2023/10/09 10:43:13;;;;;;;;;;;;;;;;;;5073597;28;19935;-74
2023/10/09 10:45:44;;;;;;;;;;;;;;;;;;5073414;28;19936;-74
2023/10/09 10:48:22;;;;;;;;;;;;;;;;;;5072913;28;19932;-74
2023/10/09 10:50:57;;;;;;;;;;;;;;;;;;5072195;28;20728;-75
2023/10/09 10:53:27;;;;;;;;;;;;;;;;;;5069280;28;20015;-75
2023/10/09 10:55:53;;;;;;;;;;;;;;;;;;5068497;28;19924;-75
2023/10/09 10:58:24;;;;;;;;;;;;;;;;;;5072306;28;20002;-74
2023/10/09 11:03:54;;;;;;;;;;;;;;;;;;5072504;28;19923;-75
2023/10/09 11:06:21;;;;;;;;;;;;;;;;;;5069031;28;19970;-74
2023/10/09 11:08:54;;;;;;;;;;;;;;;;;;5072577;28;19998;-75
2023/10/09 11:11:41;;;;;;;;;;;;;;;;;;5066195;28;19993;-75
2023/10/09 11:14:08;;;;;;;;;;;;;;;;;;5071847;28;20327;-75
2023/10/09 11:16:42;;;;;;;;;;;;;;;;;;5073298;28;20019;-74
2023/10/09 11:19:22;;;;;;;;;;;;;;;;;;5071834;28;19933;-76
2023/10/09 11:21:57;;;;;;;;;;;;;;;;;;5070869;28;19964;-75
2023/10/09 11:24:24;;;;;;;;;;;;;;;;;;5071868;28;20299;-75
2023/10/09 11:26:55;;;;;;;;;;;;;;;;;;5066210;28;19933;-75
2023/10/09 11:29:31;;;;;;;;;;;;;;;;;;5070663;28;19970;-74
2023/10/09 11:31:59;;;;;;;;;;;;;;;;;;5075082;28;20302;-73
2023/10/09 11:34:31;;;;;;;;;;;;;;;;;;5074053;28;19967;-74
2023/10/09 11:36:58;;;;;;;;;;;;;;;;;;5072404;28;20344;-76
2023/10/09 11:39:31;;;;;;;;;;;;;;;;;;5071265;28;19978;-75
2023/10/09 11:41:57;;;;;;;;;;;;;;;;;;5073458;28;19931;-75
2023/10/09 11:44:24;;;;;;;;;;;;;;;;;;5069965;28;20023;-75
2023/10/09 11:46:50;;;;;;;;;;;;;;;;;;5074312;28;20015;-75
2023/10/09 11:49:34;;;;;;;;;;;;;;;;;;5073737;28;19975;-74
2023/10/09 11:54:46;;;;;;;;;;;;;;;;;;5071740;28;19935;-75
2023/10/09 11:57:12;;;;;;;;;;;;;;;;;;5071686;28;19925;-75
2023/10/09 11:59:39;;;;;;;;;;;;;;;;;;5071156;28;20035;-75
2023/10/09 12:02:06;;;;;;;;;;;;;;;;;;5072706;28;19970;-74
2023/10/09 12:04:33;;;;;;;;;;;;;;;;;;5071660;28;20300;-74
2023/10/09 12:07:07;;;;;;;;;;;;;;;;;;5062026;28;19924;-75
2023/10/09 12:09:35;;;;;;;;;;;;;;;;;;5069906;28;19924;-74
2023/10/09 12:12:02;;;;;;;;;;;;;;;;;;5072298;28;19928;-74
2023/10/09 12:14:33;;;;;;;;;;;;;;;;;;5069208;28;19947;-74
2023/10/09 12:17:05;;;;;;;;;;;;;;;;;;5062314;28;20392;-74
2023/10/09 12:19:32;;;;;;;;;;;;;;;;;;5066399;28;19999;-74
2023/10/09 12:22:00;;;;;;;;;;;;;;;;;;5070960;28;19925;-74
2023/10/09 12:24:27;;;;;;;;;;;;;;;;;;5070264;28;19924;-74
2023/10/09 12:26:54;;;;;;;;;;;;;;;;;;5071243;28;19996;-75
2023/10/09 12:29:21;;;;;;;;;;;;;;;;;;5069435;28;19925;-75
2023/10/09 12:31:48;;;;;;;;;;;;;;;;;;5069551;28;19925;-76
2023/10/09 12:34:16;;;;;;;;;;;;;;;;;;5070746;28;19929;-76
2023/10/09 12:36:44;;;;;;;;;;;;;;;;;;5068075;28;20017;-73
2023/10/09 12:39:18;;;;;;;;;;;;;;;;;;5072406;28;19925;-74
2023/10/09 12:41:45;;;;;;;;;;;;;;;;;;5070299;28;20012;-74
2023/10/09 12:44:14;;;;;;;;;;;;;;;;;;5070113;28;19935;-73
2023/10/09 12:46:42;;;;;;;;;;;;;;;;;;5066933;28;20481;-74
2023/10/09 12:49:10;;;;;;;;;;;;;;;;;;5069704;28;20489;-73
2023/10/09 12:51:40;;;;;;;;;;;;;;;;;;5071022;28;19928;-74
2023/10/09 12:54:09;;;;;;;;;;;;;;;;;;5068878;28;20461;-75
2023/10/09 12:56:38;;;;;;;;;;;;;;;;;;5065302;28;19980;-75
2023/10/09 12:59:06;;;;;;;;;;;;;;;;;;5067914;28;19935;-72
2023/10/09 13:01:42;;;;;;;;;;;;;;;;;;5070732;28;19924;-72
2023/10/09 13:04:11;;;;;;;;;;;;;;;;;;5071760;28;19924;-72
2023/10/09 13:06:43;;;;;;;;;;;;;;;;;;5071214;28;20486;-72
2023/10/09 13:09:10;;;;;;;;;;;;;;;;;;5067818;28;19931;-72
2023/10/09 13:11:38;;;;;;;;;;;;;;;;;;5069918;28;19924;-73
2023/10/09 13:14:11;;;;;;;;;;;;;;;;;;5057235;28;20007;-72
2023/10/09 13:16:38;;;;;;;;;;;;;;;;;;5068292;28;19932;-72
2023/10/09 13:19:09;;;;;;;;;;;;;;;;;;5068212;28;19925;-72
2023/10/09 13:21:39;;;;;;;;;;;;;;;;;;5068384;28;20284;-71
2023/10/09 13:24:06;;;;;;;;;;;;;;;;;;5071146;28;19947;-72
2023/10/09 13:26:34;;;;;;;;;;;;;;;;;;5070000;28;19928;-74
2023/10/09 13:29:03;;;;;;;;;;;;;;;;;;5071065;28;19928;-74
2023/10/09 13:31:31;;;;;;;;;;;;;;;;;;5069713;28;20015;-74
2023/10/09 13:33:59;;;;;;;;;;;;;;;;;;5070876;28;19924;-74
2023/10/09 13:36:31;;;;;;;;;;;;;;;;;;5070514;28;20290;-74
2023/10/09 13:39:01;;;;;;;;;;;;;;;;;;5070892;28;19970;-74
2023/10/09 13:41:29;;;;;;;;;;;;;;;;;;5068693;28;19929;-74
2023/10/09 13:43:56;;;;;;;;;;;;;;;;;;5069693;28;20383;-74
2023/10/09 13:46:24;;;;;;;;;;;;;;;;;;5071592;28;19933;-74
2023/10/09 13:48:52;;;;;;;;;;;;;;;;;;5070599;28;19924;-74
2023/10/09 13:51:23;;;;;;;;;;;;;;;;;;5070467;28;19931;-74
2023/10/09 13:53:50;;;;;;;;;;;;;;;;;;5069677;28;20379;-75
2023/10/09 13:56:19;;;;;;;;;;;;;;;;;;5068055;28;20025;-74
2023/10/09 13:58:46;;;;;;;;;;;;;;;;;;5069641;28;20578;-74
2023/10/09 14:01:20;;;;;;;;;;;;;;;;;;5070539;28;19966;-75
2023/10/09 14:03:49;;;;;;;;;;;;;;;;;;5068950;28;19928;-74
2023/10/09 14:06:19;;;;;;;;;;;;;;;;;;5069836;28;19925;-72
2023/10/09 14:08:46;;;;;;;;;;;;;;;;;;5069269;28;19990;-74
2023/10/09 14:11:14;;;;;;;;;;;;;;;;;;5068710;28;20433;-74
2023/10/09 14:13:41;;;;;;;;;;;;;;;;;;5068835;28;19971;-73
2023/10/09 14:16:23;;;;;;;;;;;;;;;;;;5069272;28;19982;-73
2023/10/09 14:18:53;;;;;;;;;;;;;;;;;;5064773;28;20418;-74
2023/10/09 14:21:20;;;;;;;;;;;;;;;;;;5070360;28;19931;-73
2023/10/09 14:23:48;;;;;;;;;;;;;;;;;;5069146;28;20019;-74
2023/10/09 14:26:15;;;;;;;;;;;;;;;;;;5066349;28;20306;-73
2023/10/09 14:28:42;;;;;;;;;;;;;;;;;;5062642;28;19971;-73
2023/10/09 14:31:12;;;;;;;;;;;;;;;;;;5068035;28;20339;-73
2023/10/09 14:33:40;;;;;;;;;;;;;;;;;;5066773;28;19942;-74
2023/10/09 14:36:07;;;;;;;;;;;;;;;;;;5067374;28;20032;-76
2023/10/09 14:38:38;;;;;;;;;;;;;;;;;;5069761;28;19929;-77
2023/10/09 14:41:07;;;;;;;;;;;;;;;;;;5062819;28;19947;-74
2023/10/09 14:43:34;;;;;;;;;;;;;;;;;;5068313;28;19928;-73
2023/10/09 14:46:04;;;;;;;;;;;;;;;;;;5062508;28;19967;-73
2023/10/09 14:48:37;;;;;;;;;;;;;;;;;;5063628;28;20692;-76
2023/10/09 14:51:06;;;;;;;;;;;;;;;;;;5067989;28;19936;-75
2023/10/09 14:53:34;;;;;;;;;;;;;;;;;;5070789;28;19925;-75
2023/10/09 14:56:01;;;;;;;;;;;;;;;;;;5062742;28;19943;-75
2023/10/09 14:58:29;;;;;;;;;;;;;;;;;;5065560;28;19924;-73
2023/10/09 15:00:57;;;;;;;;;;;;;;;;;;5064628;28;20379;-76
2023/10/09 15:03:24;;;;;;;;;;;;;;;;;;5060217;28;19939;-72
2023/10/09 15:05:51;;;;;;;;;;;;;;;;;;5062924;28;20418;-73
2023/10/09 15:08:19;;;;;;;;;;;;;;;;;;5060442;28;20324;-75
2023/10/09 15:10:47;;;;;;;;;;;;;;;;;;5060076;28;19999;-73
2023/10/09 15:13:16;;;;;;;;;;;;;;;;;;5069405;28;19925;-74
2023/10/09 15:15:43;;;;;;;;;;;;;;;;;;5067515;28;19924;-75
2023/10/09 15:18:12;;;;;;;;;;;;;;;;;;5067068;28;20047;-74
2023/10/09 15:20:39;;;;;;;;;;;;;;;;;;5072434;28;20352;-79
2023/10/09 15:23:06;;;;;;;;;;;;;;;;;;5068665;28;20375;-74
2023/10/09 15:25:34;;;;;;;;;;;;;;;;;;5067735;28;19925;-74
2023/10/09 15:28:02;;;;;;;;;;;;;;;;;;5068593;28;21027;-74
2023/10/09 15:30:31;;;;;;;;;;;;;;;;;;5068713;28;19936;-74
2023/10/09 15:32:58;;;;;;;;;;;;;;;;;;5067699;28;19993;-74
2023/10/09 15:35:25;;;;;;;;;;;;;;;;;;5070885;28;19960;-74
2023/10/09 15:37:53;;;;;;;;;;;;;;;;;;5070561;28;19936;-76
2023/10/09 15:40:23;;;;;;;;;;;;;;;;;;5069355;28;20028;-74
2023/10/09 15:42:50;;;;;;;;;;;;;;;;;;5072376;28;19924;-75
2023/10/09 15:45:19;;;;;;;;;;;;;;;;;;5067253;28;19933;-74
2023/10/09 15:47:46;;;;;;;;;;;;;;;;;;5068270;28;19977;-74
2023/10/09 15:50:14;;;;;;;;;;;;;;;;;;5069929;28;19929;-75
2023/10/09 15:52:41;;;;;;;;;;;;;;;;;;5065406;28;19924;-75
2023/10/09 15:55:13;;;;;;;;;;;;;;;;;;5063339;28;20018;-74
2023/10/09 15:57:40;;;;;;;;;;;;;;;;;;5067613;28;19925;-74
2023/10/09 16:00:13;;;;;;;;;;;;;;;;;;5069438;28;19924;-74
2023/10/09 16:02:40;;;;;;;;;;;;;;;;;;5066682;28;20053;-75
2023/10/09 16:05:10;;;;;;;;;;;;;;;;;;5072949;28;20020;-74
2023/10/09 16:07:38;;;;;;;;;;;;;;;;;;5070145;28;20643;-75
2023/10/09 16:10:05;;;;;;;;;;;;;;;;;;5064199;28;19929;-74
2023/10/09 16:12:33;;;;;;;;;;;;;;;;;;5071426;28;19928;-73
2023/10/09 16:15:00;;;;;;;;;;;;;;;;;;5070281;28;19947;-74
2023/10/09 16:17:27;;;;;;;;;;;;;;;;;;5070648;28;19970;-74
2023/10/09 16:19:54;;;;;;;;;;;;;;;;;;5068784;28;20006;-75
2023/10/09 16:22:24;;;;;;;;;;;;;;;;;;5070899;28;19924;-76
2023/10/09 16:24:55;;;;;;;;;;;;;;;;;;5070008;28;19924;-75
2023/10/09 16:27:23;;;;;;;;;;;;;;;;;;5065087;28;19928;-75
2023/10/09 16:29:50;;;;;;;;;;;;;;;;;;5069574;28;19979;-75
2023/10/09 16:32:21;;;;;;;;;;;;;;;;;;5064844;28;19924;-75
2023/10/09 16:34:48;;;;;;;;;;;;;;;;;;5066676;28;19947;-74
2023/10/09 16:37:15;;;;;;;;;;;;;;;;;;5065516;28;19924;-74
2023/10/09 16:39:44;;;;;;;;;;;;;;;;;;5072397;28;19936;-74
2023/10/09 16:42:13;;;;;;;;;;;;;;;;;;5072180;28;19925;-74
2023/10/09 16:44:40;;;;;;;;;;;;;;;;;;5071924;28;19931;-75
2023/10/09 16:47:08;;;;;;;;;;;;;;;;;;5070070;28;19925;-74
2023/10/09 16:49:35;;;;;;;;;;;;;;;;;;5070650;28;20015;-76
2023/10/09 16:52:07;;;;;;;;;;;;;;;;;;5069866;28;19924;-77
2023/10/09 16:54:36;;;;;;;;;;;;;;;;;;5069415;28;20006;-82
2023/10/09 16:57:08;;;;;;;;;;;;;;;;;;5067555;28;19924;-79
2023/10/09 16:59:35;;;;;;;;;;;;;;;;;;5062583;28;20018;-76
2023/10/09 17:02:06;;;;;;;;;;;;;;;;;;5069300;28;20011;-74
2023/10/09 17:04:33;;;;;;;;;;;;;;;;;;5068675;28;19971;-74
2023/10/09 17:07:01;;;;;;;;;;;;;;;;;;5064682;28;19928;-74
2023/10/09 17:09:30;;;;;;;;;;;;;;;;;;5069395;28;19950;-74
2023/10/09 17:11:57;;;;;;;;;;;;;;;;;;5071980;28;20345;-74
2023/10/09 17:14:26;;;;;;;;;;;;;;;;;;5069723;28;19932;-74
2023/10/09 17:16:54;;;;;;;;;;;;;;;;;;5070564;28;19928;-74
2023/10/09 17:19:23;;;;;;;;;;;;;;;;;;5072509;28;20331;-75
2023/10/09 17:21:50;;;;;;;;;;;;;;;;;;5072584;28;19925;-75
2023/10/09 17:24:20;;;;;;;;;;;;;;;;;;5070366;28;19924;-74
2023/10/09 17:26:50;;;;;;;;;;;;;;;;;;5071234;28;20291;-74
2023/10/09 17:29:17;;;;;;;;;;;;;;;;;;5071199;28;19970;-74
2023/10/09 17:31:44;;;;;;;;;;;;;;;;;;5071007;28;20365;-75
2023/10/09 17:34:11;;;;;;;;;;;;;;;;;;5071802;28;19924;-74
2023/10/09 17:36:38;;;;;;;;;;;;;;;;;;5067937;28;20395;-74
2023/10/09 17:39:05;;;;;;;;;;;;;;;;;;5070477;28;19924;-75
2023/10/09 17:41:35;;;;;;;;;;;;;;;;;;5071514;28;19994;-74
2023/10/09 17:44:02;;;;;;;;;;;;;;;;;;5068631;28;19925;-74
2023/10/09 17:46:29;;;;;;;;;;;;;;;;;;5067658;28;19924;-74
2023/10/09 17:48:57;;;;;;;;;;;;;;;;;;5072146;28;20015;-74
2023/10/09 17:51:24;;;;;;;;;;;;;;;;;;5072247;28;20442;-74
2023/10/09 17:53:51;;;;;;;;;;;;;;;;;;5069964;28;20025;-74
2023/10/09 17:56:19;;;;;;;;;;;;;;;;;;5070629;28;20404;-74
2023/10/09 17:58:49;;;;;;;;;;;;;;;;;;5072057;28;20007;-74
2023/10/09 18:01:17;;;;;;;;;;;;;;;;;;5071593;28;19924;-74
2023/10/09 18:03:44;;;;;;;;;;;;;;;;;;5071686;28;19933;-74
2023/10/09 18:06:16;;;;;;;;;;;;;;;;;;5071909;28;19925;-74